Time;durP1;ratioP1;P1;durP2;ratioP2;P2;SDS_P1;SDS_P2;PMS_P1;PMS_P2;Temp;Humidity;BMP_temperature;BMP_pressure;BME280_temperature;BME280_humidity;BME280_pressure;Samples;Min_cycle;Max_cycle;Signal;HPM_P1;HPM_P2
2022/10/22 00:00:17;;;;;;;6.03;2.72;;;;;;;9.30;100.00;100836.97;1031373;28;20303;-79
2022/10/22 00:00:49;;;;;;;4.95;2.13;;;;;;;9.29;100.00;100835.34;1027377;28;20309;-79
2022/10/22 00:01:21;;;;;;;5.15;2.60;;;;;;;9.29;100.00;100840.66;1027831;28;20313;-79
2022/10/22 00:01:53;;;;;;;9.40;3.17;;;;;;;9.28;100.00;100842.50;1031904;28;20297;-79
2022/10/22 00:02:26;;;;;;;5.63;3.17;;;;;;;9.29;100.00;100835.34;1028041;28;20302;-79
2022/10/22 00:02:58;;;;;;;4.63;2.90;;;;;;;9.29;100.00;100838.00;1027336;28;20392;-79
2022/10/22 00:03:30;;;;;;;3.05;2.70;;;;;;;9.27;100.00;100838.22;1023688;28;20301;-79
2022/10/22 00:04:01;;;;;;;3.78;3.38;;;;;;;9.26;100.00;100841.06;1019361;29;20362;-79
2022/10/22 00:04:33;;;;;;;4.25;3.58;;;;;;;9.27;100.00;100843.53;1019300;29;20307;-80
2022/10/22 00:05:06;;;;;;;3.35;3.05;;;;;;;9.27;100.00;100848.03;1016127;29;20953;-79
2022/10/22 00:05:38;;;;;;;3.95;2.58;;;;;;;9.23;100.00;100852.94;1015782;29;20299;-79
2022/10/22 00:06:09;;;;;;;8.65;2.72;;;;;;;9.22;100.00;100845.19;1016960;29;20311;-79
2022/10/22 00:06:43;;;;;;;3.78;3.00;;;;;;;9.22;100.00;100848.66;1020113;28;20303;-79
2022/10/22 00:07:16;;;;;;;6.47;2.88;;;;;;;9.22;100.00;100851.31;1028394;28;20799;-79
2022/10/22 00:07:48;;;;;;;4.07;3.33;;;;;;;9.26;100.00;100847.22;1031722;28;20337;-79
2022/10/22 00:08:19;;;;;;;7.72;3.42;;;;;;;9.27;100.00;100848.03;1031716;28;20340;-79
2022/10/22 00:08:51;;;;;;;4.38;3.15;;;;;;;9.25;100.00;100842.91;1031869;28;20313;-79
2022/10/22 00:09:23;;;;;;;4.00;3.67;;;;;;;9.24;100.00;100841.28;1031466;28;20305;-79
2022/10/22 00:09:55;;;;;;;4.03;3.58;;;;;;;9.26;100.00;100843.72;1027301;28;20298;-79
2022/10/22 00:10:26;;;;;;;6.43;3.42;;;;;;;9.25;100.00;100850.88;1027113;28;20448;-79
2022/10/22 00:10:58;;;;;;;3.88;3.58;;;;;;;9.29;100.00;100848.63;1023579;28;20299;-79
2022/10/22 00:11:29;;;;;;;4.45;4.05;;;;;;;9.31;100.00;100846.56;1023613;28;20294;-79
2022/10/22 00:12:01;;;;;;;4.68;4.25;;;;;;;9.32;100.00;100842.13;1023243;28;20350;-79
2022/10/22 00:12:33;;;;;;;4.43;4.00;;;;;;;9.34;100.00;100848.84;1024007;28;20302;-79
2022/10/22 00:13:04;;;;;;;5.68;3.95;;;;;;;9.32;100.00;100844.78;1030973;28;20340;-80
2022/10/22 00:13:36;;;;;;;3.85;3.55;;;;;;;9.32;100.00;100844.78;1031240;28;20313;-80
2022/10/22 00:14:08;;;;;;;5.00;4.32;;;;;;;9.35;100.00;100850.47;1031491;28;20301;-79
2022/10/22 00:14:39;;;;;;;7.82;4.72;;;;;;;9.36;100.00;100853.97;1030962;28;20321;-80
2022/10/22 00:15:11;;;;;;;7.43;5.38;;;;;;;9.38;100.00;100850.06;1031365;28;20302;-79
2022/10/22 00:15:43;;;;;;;9.10;5.07;;;;;;;9.39;100.00;100851.69;1027254;28;20313;-80
2022/10/22 00:16:14;;;;;;;7.32;4.95;;;;;;;9.39;100.00;100850.88;1027999;28;20641;-80
2022/10/22 00:16:46;;;;;;;7.43;4.97;;;;;;;9.39;100.00;100848.22;1027277;28;20298;-79
2022/10/22 00:17:17;;;;;;;6.30;5.30;;;;;;;9.39;100.00;100853.53;1027667;28;20298;-80
2022/10/22 00:17:49;;;;;;;5.60;5.05;;;;;;;9.38;100.00;100855.38;1031799;28;20297;-80
2022/10/22 00:18:20;;;;;;;8.77;4.90;;;;;;;9.37;100.00;100856.41;1023486;28;20306;-80
2022/10/22 00:18:52;;;;;;;8.00;4.88;;;;;;;9.38;100.00;100858.03;1027506;28;20309;-80
2022/10/22 00:19:24;;;;;;;5.88;5.07;;;;;;;9.37;100.00;100861.72;1023741;28;20374;-80
2022/10/22 00:19:55;;;;;;;6.25;5.55;;;;;;;9.34;100.00;100858.66;1020069;28;20306;-80
2022/10/22 00:20:27;;;;;;;6.28;5.68;;;;;;;9.33;100.00;100863.16;1022988;29;20329;-80
2022/10/22 00:20:58;;;;;;;6.18;5.00;;;;;;;9.32;100.00;100856.22;1024187;28;20295;-80
2022/10/22 00:21:30;;;;;;;7.97;5.05;;;;;;;9.28;100.00;100855.78;1027932;28;20742;-80
2022/10/22 00:22:04;;;;;;;8.27;4.65;;;;;;;9.29;100.00;100861.91;1031013;28;20786;-80
2022/10/22 00:22:36;;;;;;;7.22;4.80;;;;;;;9.28;100.00;100858.44;1031713;28;20304;-80
2022/10/22 00:23:07;;;;;;;6.20;5.68;;;;;;;9.35;100.00;100862.97;1031861;28;20301;-80
2022/10/22 00:23:41;;;;;;;8.98;5.18;;;;;;;9.32;100.00;100863.38;1031593;28;20305;-80
2022/10/22 00:24:13;;;;;;;5.15;4.40;;;;;;;9.27;100.00;100863.97;1031142;28;20305;-80
2022/10/22 00:24:44;;;;;;;8.35;5.15;;;;;;;9.29;100.00;100868.06;1031294;28;20308;-80
2022/10/22 00:25:16;;;;;;;6.22;4.60;;;;;;;9.28;100.00;100866.41;1035204;28;20734;-80
2022/10/22 00:25:47;;;;;;;5.43;4.93;;;;;;;9.24;100.00;100870.53;1031228;28;20807;-79
2022/10/22 00:26:19;;;;;;;10.73;5.05;;;;;;;9.26;100.00;100870.31;1031419;28;20383;-80
2022/10/22 00:26:50;;;;;;;6.10;5.43;;;;;;;9.29;100.00;100872.56;1027064;28;20306;-80
2022/10/22 00:27:22;;;;;;;10.25;4.72;;;;;;;9.26;100.00;100867.66;1016657;29;20300;-80
2022/10/22 00:27:54;;;;;;;8.43;6.43;;;;;;;9.27;100.00;100867.44;1020197;29;20299;-80
2022/10/22 00:28:25;;;;;;;8.15;5.45;;;;;;;9.28;100.00;100865.59;1023414;28;20358;-80
2022/10/22 00:28:57;;;;;;;19.27;5.82;;;;;;;9.28;100.00;100870.91;1027675;28;20309;-80
2022/10/22 00:29:29;;;;;;;7.70;6.05;;;;;;;9.31;100.00;100873.16;1035692;28;20659;-80
2022/10/22 00:30:00;;;;;;;9.45;6.28;;;;;;;9.32;100.00;100876.66;1030499;28;20780;-80
2022/10/22 00:30:32;;;;;;;9.18;5.85;;;;;;;9.33;100.00;100871.13;1035433;28;20293;-80
2022/10/22 00:31:04;;;;;;;7.07;5.50;;;;;;;9.36;100.00;100880.53;1035331;28;20300;-80
2022/10/22 00:31:36;;;;;;;7.68;5.68;;;;;;;9.36;100.00;100875.22;1029415;28;20294;-80
2022/10/22 00:32:08;;;;;;;6.68;6.07;;;;;;;9.37;100.00;100876.84;1030852;28;20309;-79
2022/10/22 00:32:39;;;;;;;9.80;5.93;;;;;;;9.38;100.00;100879.31;1029934;28;20320;-80
2022/10/22 00:33:11;;;;;;;7.50;6.43;;;;;;;9.40;100.00;100882.56;1031701;28;20300;-80
2022/10/22 00:33:45;;;;;;;8.07;6.05;;;;;;;9.40;100.00;100882.56;1026818;28;20316;-80
2022/10/22 00:34:20;;;;;;;7.45;5.88;;;;;;;9.45;100.00;100880.09;1027327;28;20306;-80
2022/10/22 00:34:51;;;;;;;10.40;6.00;;;;;;;9.47;100.00;100878.06;1022973;28;20306;-80
2022/10/22 00:35:23;;;;;;;9.95;6.43;;;;;;;9.49;100.00;100875.19;1024737;28;20287;-79
2022/10/22 00:35:55;;;;;;;6.32;5.68;;;;;;;9.50;100.00;100882.13;1024198;28;20303;-80
2022/10/22 00:36:26;;;;;;;13.70;6.32;;;;;;;9.48;100.00;100879.69;1027933;28;20298;-80
2022/10/22 00:36:58;;;;;;;8.48;5.88;;;;;;;9.47;100.00;100875.38;1027566;28;20305;-80
2022/10/22 00:37:30;;;;;;;8.48;6.00;;;;;;;9.46;100.00;100880.91;1027873;28;20302;-80
2022/10/22 00:38:01;;;;;;;6.50;5.90;;;;;;;9.39;100.00;100877.47;1027228;28;20365;-80
2022/10/22 00:38:33;;;;;;;8.10;5.72;;;;;;;9.37;100.00;100871.53;1028081;28;20826;-80
2022/10/22 00:39:05;;;;;;;11.95;6.50;;;;;;;9.37;100.00;100874.19;1031545;28;20285;-80
2022/10/22 00:39:36;;;;;;;11.65;5.88;;;;;;;9.37;100.00;100869.69;1031838;28;20344;-80
2022/10/22 00:40:09;;;;;;;9.93;6.82;;;;;;;9.41;100.00;100878.06;1035105;28;20354;-80
2022/10/22 00:40:40;;;;;;;8.10;5.70;;;;;;;9.44;100.00;100875.81;1035566;28;20837;-80
2022/10/22 00:41:12;;;;;;;9.95;6.80;;;;;;;9.49;100.00;100876.00;1034723;28;20312;-80
2022/10/22 00:41:46;;;;;;;8.68;7.32;;;;;;;9.49;100.00;100877.84;1033611;28;20312;-79
2022/10/22 00:42:20;;;;;;;14.00;6.35;;;;;;;9.48;100.00;100877.03;1031068;28;20439;-79
2022/10/22 00:42:51;;;;;;;6.32;5.75;;;;;;;9.47;100.00;100880.72;1027559;28;20298;-80
2022/10/22 00:43:23;;;;;;;7.88;6.03;;;;;;;9.46;100.00;100879.06;1023215;28;20298;-80
2022/10/22 00:44:00;;;;;;;8.32;6.03;;;;;;;9.46;100.00;100873.75;1022499;28;20306;-80
2022/10/22 00:45:00;;;;;;;9.82;5.93;;;;;;;9.43;100.00;100873.38;1021585;28;20307;-80
2022/10/22 00:45:31;;;;;;;20.40;6.25;;;;;;;9.39;100.00;100877.47;1023678;28;20309;-80
2022/10/22 00:46:03;;;;;;;8.20;5.28;;;;;;;9.40;100.00;100879.91;1019707;29;20306;-80
2022/10/22 00:46:35;;;;;;;77.38;9.55;;;;;;;9.35;100.00;100876.25;1021065;28;20299;-80
2022/10/22 00:47:06;;;;;;;139.23;12.93;;;;;;;9.32;100.00;100877.47;1023232;28;20295;-80
2022/10/22 00:47:41;;;;;;;7.22;5.50;;;;;;;9.32;100.00;100872.16;1025283;28;20304;-80
2022/10/22 00:48:21;;;;;;;9.32;5.43;;;;;;;9.33;100.00;100873.81;1031618;28;20289;-80
2022/10/22 00:48:54;;;;;;;7.97;6.00;;;;;;;9.34;100.00;100875.44;1031241;28;20298;-80
2022/10/22 00:49:25;;;;;;;9.82;5.40;;;;;;;9.34;100.00;100869.31;1033603;28;20297;-80
2022/10/22 00:49:57;;;;;;;7.13;5.47;;;;;;;9.30;100.00;100868.88;1034586;28;20305;-80
2022/10/22 00:50:51;;;;;;;7.43;5.55;;;;;;;9.38;100.00;100859.88;1030173;28;20313;-79
2022/10/22 00:51:25;;;;;;;9.23;5.07;;;;;;;9.37;100.00;100867.03;1030719;28;20313;-79
2022/10/22 00:51:56;;;;;;;6.97;5.20;;;;;;;9.38;100.00;100867.84;1031241;28;20822;-80
2022/10/22 00:52:28;;;;;;;9.70;5.65;;;;;;;9.37;100.00;100867.03;1026922;28;20302;-79
2022/10/22 00:53:01;;;;;;;6.30;5.40;;;;;;;9.37;100.00;100869.69;1023313;28;20313;-80
2022/10/22 00:53:37;;;;;;;9.13;6.13;;;;;;;9.39;100.00;100866.84;1022332;28;20793;-80
2022/10/22 00:54:08;;;;;;;8.20;6.45;;;;;;;9.39;100.00;100862.31;1028408;28;20370;-80
2022/10/22 00:54:41;;;;;;;6.63;5.22;;;;;;;9.38;100.00;100871.34;1028357;28;20313;-80
2022/10/22 00:55:13;;;;;;;7.00;6.13;;;;;;;9.36;100.00;100865.41;1030715;28;20293;-80
2022/10/22 00:55:47;;;;;;;9.05;5.70;;;;;;;9.37;100.00;100863.56;1031453;28;20340;-79
2022/10/22 00:56:19;;;;;;;6.70;6.10;;;;;;;9.34;100.00;100867.47;1027182;28;20424;-79
2022/10/22 00:56:51;;;;;;;11.32;6.63;;;;;;;9.34;100.00;100866.63;1024193;28;20565;-80
2022/10/22 00:57:22;;;;;;;11.93;6.20;;;;;;;9.32;100.00;100864.19;1024075;28;20822;-80
2022/10/22 00:57:55;;;;;;;9.80;6.18;;;;;;;9.30;100.00;100858.25;1019774;29;20307;-80
2022/10/22 00:58:28;;;;;;;11.82;6.63;;;;;;;9.28;100.00;100857.63;1020198;29;20290;-79
2022/10/22 00:59:01;;;;;;;12.65;6.47;;;;;;;9.27;100.00;100858.66;1023886;28;20667;-79
2022/10/22 00:59:32;;;;;;;5.60;5.07;;;;;;;9.25;100.00;100858.03;1025065;28;20318;-80
2022/10/22 01:00:05;;;;;;;7.45;6.60;;;;;;;9.30;100.00;100858.25;1032240;28;20297;-79
2022/10/22 01:00:37;;;;;;;11.57;7.43;;;;;;;9.41;100.00;100860.28;1030681;28;20309;-80
2022/10/22 01:01:13;;;;;;;8.43;6.85;;;;;;;9.41;100.00;100864.78;1027076;28;20376;-80
2022/10/22 01:01:45;;;;;;;8.10;7.10;;;;;;;9.40;100.00;100863.97;1023194;28;20295;-80
2022/10/22 01:02:17;;;;;;;8.10;6.47;;;;;;;9.39;100.00;100862.31;1028714;28;20361;-80
2022/10/22 01:02:50;;;;;;;11.45;7.72;;;;;;;9.41;100.00;100865.59;1032223;28;20297;-80
2022/10/22 01:03:22;;;;;;;12.60;7.18;;;;;;;9.37;100.00;100856.41;1028780;28;20437;-80
2022/10/22 01:03:54;;;;;;;7.40;6.60;;;;;;;9.35;100.00;100866.44;1031364;28;20396;-79
2022/10/22 01:04:26;;;;;;;7.65;6.72;;;;;;;9.33;100.00;100860.50;1027002;28;20294;-80
2022/10/22 01:04:57;;;;;;;8.30;7.07;;;;;;;9.32;100.00;100858.88;1027810;28;20302;-79
2022/10/22 01:05:32;;;;;;;7.70;6.07;;;;;;;9.28;100.00;100858.44;1027140;28;20310;-80
2022/10/22 01:06:04;;;;;;;8.77;6.82;;;;;;;9.25;100.00;100861.53;1028289;28;20302;-79
2022/10/22 01:06:36;;;;;;;7.07;6.45;;;;;;;9.22;100.00;100867.25;1027169;28;20302;-80
2022/10/22 01:07:15;;;;;;;11.43;6.70;;;;;;;9.20;100.00;100865.81;1026605;28;20357;-79
2022/10/22 01:07:50;;;;;;;8.48;6.90;;;;;;;9.18;100.00;100871.34;1028279;28;20302;-79
2022/10/22 01:08:35;;;;;;;8.68;6.32;;;;;;;9.17;100.00;100872.38;1027146;28;20380;-79
2022/10/22 01:09:25;;;;;;;7.20;6.50;;;;;;;9.16;100.00;100869.94;1027221;28;20333;-79
2022/10/22 01:10:12;;;;;;;12.10;5.82;;;;;;;9.13;100.00;100873.00;1031312;28;20289;-79
2022/10/22 01:10:53;;;;;;;10.65;6.30;;;;;;;9.11;100.00;100869.72;1031277;28;20396;-80
2022/10/22 01:11:43;;;;;;;5.68;5.18;;;;;;;9.08;100.00;100870.16;1027243;28;20392;-80
2022/10/22 01:12:23;;;;;;;8.52;5.85;;;;;;;9.04;100.00;100868.91;1023145;28;20299;-79
2022/10/22 01:13:06;;;;;;;5.47;4.97;;;;;;;8.97;100.00;100864.41;1027415;28;20293;-80
2022/10/22 01:14:01;;;;;;;7.35;5.93;;;;;;;9.03;100.00;100867.25;1027007;28;20121;-80
2022/10/22 01:15:04;;;;;;;9.48;5.45;;;;;;;9.00;100.00;100863.19;1015541;28;20312;-80
2022/10/22 01:15:41;;;;;;;6.40;5.03;;;;;;;9.02;100.00;100868.28;1026367;28;20301;-79
2022/10/22 01:16:23;;;;;;;5.50;5.00;;;;;;;9.02;100.00;100865.63;1028195;28;20313;-80
2022/10/22 01:17:05;;;;;;;5.78;4.28;;;;;;;9.05;100.00;100870.56;1031003;28;20301;-80
2022/10/22 01:18:09;;;;;;;12.70;5.43;;;;;;;9.05;100.00;100870.56;1031666;28;20305;-80
2022/10/22 01:19:02;;;;;;;5.85;4.47;;;;;;;9.06;100.00;100866.88;1031428;28;20312;-79
2022/10/22 01:20:10;;;;;;;5.70;4.65;;;;;;;9.05;100.00;100867.91;1026769;28;20340;-79
2022/10/22 01:20:57;;;;;;;20.83;5.88;;;;;;;9.19;100.00;100864.19;1027111;28;20661;-79
2022/10/22 01:21:43;;;;;;;7.45;5.53;;;;;;;9.25;100.00;100860.69;1027794;28;20664;-80
2022/10/22 01:22:14;;;;;;;8.60;6.05;;;;;;;9.24;100.00;100861.72;1029037;28;20286;-80
2022/10/22 01:23:07;;;;;;;9.88;6.07;;;;;;;9.21;100.00;100872.78;1031381;28;20344;-79
2022/10/22 01:24:06;;;;;;;8.18;5.35;;;;;;;9.19;100.00;100856.22;1031218;28;20331;-80
2022/10/22 01:24:57;;;;;;;6.55;5.80;;;;;;;9.17;100.00;100868.91;1030757;28;20660;-80
2022/10/22 01:26:04;;;;;;;7.07;5.22;;;;;;;9.17;100.00;100856.44;1027029;28;20305;-80
2022/10/22 01:26:59;;;;;;;6.20;5.60;;;;;;;9.15;100.00;100860.31;1026647;28;20463;-80
2022/10/22 01:27:42;;;;;;;6.82;5.90;;;;;;;9.15;100.00;100855.00;1034550;28;20303;-80
2022/10/22 01:28:53;;;;;;;7.25;5.53;;;;;;;9.14;100.00;100864.81;1031571;28;20293;-80
2022/10/22 01:29:29;;;;;;;7.72;4.65;;;;;;;9.14;100.00;100862.16;1024354;28;20306;-79
2022/10/22 01:30:09;;;;;;;9.02;4.55;;;;;;;9.08;100.00;100867.50;1028478;28;20557;-80
2022/10/22 01:30:41;;;;;;;5.63;5.10;;;;;;;9.09;100.00;100861.16;1022485;28;20727;-80
2022/10/22 01:31:14;;;;;;;6.45;5.85;;;;;;;9.09;100.00;100861.16;1023011;29;20337;-80
2022/10/22 01:31:52;;;;;;;9.02;5.75;;;;;;;9.09;100.00;100861.16;1022599;28;20310;-80
2022/10/22 01:32:25;;;;;;;11.00;5.90;;;;;;;9.07;100.00;100865.84;1028284;28;20380;-80
2022/10/22 01:33:00;;;;;;;8.90;5.53;;;;;;;9.06;100.00;100864.22;1028983;28;20302;-80
2022/10/22 01:33:32;;;;;;;7.82;6.82;;;;;;;9.08;100.00;100860.34;1028929;28;20345;-80
2022/10/22 01:34:05;;;;;;;8.88;7.25;;;;;;;9.05;100.00;100859.94;1026989;28;20353;-80
2022/10/22 01:34:39;;;;;;;5.90;5.40;;;;;;;9.05;100.00;100865.25;1024017;28;20306;-79
2022/10/22 01:35:13;;;;;;;6.07;5.47;;;;;;;9.04;100.00;100863.56;1024064;28;20306;-80
2022/10/22 01:35:45;;;;;;;6.53;5.82;;;;;;;9.06;100.00;100866.88;1024699;28;20438;-79
2022/10/22 01:36:18;;;;;;;10.13;6.18;;;;;;;9.08;100.00;100864.81;1024095;28;20848;-80
2022/10/22 01:36:50;;;;;;;12.18;7.72;;;;;;;9.07;100.00;100863.19;1024071;28;20307;-80
2022/10/22 01:37:25;;;;;;;9.57;6.40;;;;;;;9.07;100.00;100864.00;1023752;28;20306;-80
2022/10/22 01:37:59;;;;;;;8.60;5.82;;;;;;;9.09;100.00;100869.13;1023277;28;20358;-80
2022/10/22 01:38:31;;;;;;;6.30;5.70;;;;;;;9.11;100.00;100869.72;1019756;28;20857;-80
2022/10/22 01:39:04;;;;;;;9.98;6.25;;;;;;;9.10;100.00;100868.91;1024281;28;20303;-80
2022/10/22 01:39:36;;;;;;;7.25;6.00;;;;;;;9.10;100.00;100862.78;1028102;28;20784;-80
2022/10/22 01:40:09;;;;;;;7.35;5.70;;;;;;;9.09;100.00;100861.16;1027803;28;20341;-80
2022/10/22 01:40:41;;;;;;;8.98;7.03;;;;;;;9.08;100.00;100856.84;1032067;28;20364;-80
2022/10/22 01:41:13;;;;;;;8.60;5.50;;;;;;;9.08;100.00;100867.50;1034876;28;20304;-79
2022/10/22 01:41:45;;;;;;;10.52;6.10;;;;;;;9.06;100.00;100866.88;1031997;28;20301;-80
2022/10/22 01:42:17;;;;;;;6.50;5.20;;;;;;;9.05;100.00;100859.94;1028397;28;20297;-80
2022/10/22 01:43:00;;;;;;;6.82;5.47;;;;;;;9.03;100.00;100867.25;1026931;28;20317;-80
2022/10/22 01:43:32;;;;;;;7.63;5.28;;;;;;;8.99;100.00;100862.38;1027282;28;20298;-80
2022/10/22 01:44:03;;;;;;;6.95;6.25;;;;;;;8.99;100.00;100867.69;1024827;28;20306;-80
2022/10/22 01:44:36;;;;;;;8.63;6.97;;;;;;;9.00;100.00;100863.19;1025123;28;20329;-80
2022/10/22 01:45:13;;;;;;;14.75;5.95;;;;;;;9.01;100.00;100864.81;1023019;28;20310;-79
2022/10/22 01:45:50;;;;;;;7.30;5.50;;;;;;;8.99;100.00;100862.38;1022434;28;20797;-79
2022/10/22 01:46:23;;;;;;;5.82;5.22;;;;;;;8.98;100.00;100858.06;1023265;28;20298;-80
2022/10/22 01:47:24;;;;;;;6.05;5.47;;;;;;;8.98;100.00;100863.38;1020057;28;20307;-79
2022/10/22 01:48:03;;;;;;;8.73;5.40;;;;;;;8.98;100.00;100860.72;1027190;28;20804;-80
2022/10/22 01:49:07;;;;;;;6.85;5.25;;;;;;;8.97;100.00;100856.44;1028528;28;20301;-80
2022/10/22 01:50:05;;;;;;;7.93;5.57;;;;;;;8.91;100.00;100859.91;1030953;28;20352;-80
2022/10/22 01:50:43;;;;;;;5.43;4.93;;;;;;;8.93;100.00;100871.16;1030206;28;20433;-80
2022/10/22 01:51:23;;;;;;;8.95;5.82;;;;;;;8.95;100.00;100863.78;1031035;28;20317;-80
2022/10/22 01:52:27;;;;;;;7.18;5.45;;;;;;;8.93;100.00;100868.50;1030357;28;20804;-80
2022/10/22 01:53:18;;;;;;;5.40;4.65;;;;;;;8.92;100.00;100866.06;1020277;29;20518;-79
2022/10/22 01:54:03;;;;;;;6.07;5.07;;;;;;;8.93;100.00;100873.00;1014683;29;20827;-80
2022/10/22 01:54:52;;;;;;;4.80;4.35;;;;;;;8.91;100.00;100862.56;1014876;29;20051;-80
2022/10/22 01:55:35;;;;;;;5.72;5.20;;;;;;;8.92;100.00;100860.75;1031469;28;20300;-80
2022/10/22 01:56:19;;;;;;;9.93;5.47;;;;;;;8.93;100.00;100863.19;1031252;28;20293;-80
2022/10/22 01:56:57;;;;;;;6.55;5.05;;;;;;;8.95;100.00;100861.13;1019723;29;20306;-80
2022/10/22 01:58:17;;;;;;;6.03;5.43;;;;;;;8.94;100.00;100858.69;1023016;28;20310;-80
2022/10/22 01:59:21;;;;;;;5.25;4.75;;;;;;;8.92;100.00;100850.94;1008645;29;20316;-79
2022/10/22 02:00:00;;;;;;;7.63;5.32;;;;;;;8.88;100.00;100860.34;1015165;29;20296;-80
2022/10/22 02:00:37;;;;;;;9.93;5.30;;;;;;;8.89;100.00;100856.66;1010946;29;20926;-80
2022/10/22 02:01:15;;;;;;;5.95;5.07;;;;;;;8.88;100.00;100865.66;1021535;28;20666;-80
2022/10/22 02:02:01;;;;;;;9.30;5.07;;;;;;;8.87;100.00;100855.22;1026119;28;20301;-79
2022/10/22 02:02:51;;;;;;;6.78;5.05;;;;;;;8.86;100.00;100853.59;1030958;28;20333;-80
2022/10/22 02:03:33;;;;;;;9.18;4.70;;;;;;;8.84;100.00;100861.75;1029764;28;20360;-80
2022/10/22 02:04:16;;;;;;;7.80;4.93;;;;;;;8.81;100.00;100854.22;1030672;28;20302;-79
2022/10/22 02:04:56;;;;;;;5.07;4.57;;;;;;;8.77;100.00;100858.28;1030679;28;20804;-80
2022/10/22 02:05:37;;;;;;;5.30;4.75;;;;;;;8.77;100.00;100854.81;1031298;28;20304;-80
2022/10/22 02:06:13;;;;;;;6.07;5.47;;;;;;;8.77;100.00;100860.13;1027254;28;20035;-80
2022/10/22 02:06:47;;;;;;;8.73;5.60;;;;;;;8.76;100.00;100861.94;1025071;28;20493;-80
2022/10/22 02:07:22;;;;;;;7.28;5.45;;;;;;;8.73;100.00;100856.22;1022696;28;20302;-80
2022/10/22 02:08:09;;;;;;;8.10;7.30;;;;;;;8.75;100.00;100860.31;1024880;28;20434;-80
2022/10/22 02:08:42;;;;;;;6.13;3.65;;;;;;;8.74;100.00;100865.81;1028922;28;20419;-80
2022/10/22 02:09:15;;;;;;;7.43;5.68;;;;;;;8.76;100.00;100861.94;1034505;28;20301;-80
2022/10/22 02:09:48;;;;;;;8.93;5.88;;;;;;;8.78;100.00;100872.41;1030601;28;20312;-80
2022/10/22 02:10:20;;;;;;;10.90;5.63;;;;;;;8.80;100.00;100873.00;1027972;28;20305;-80
2022/10/22 02:10:52;;;;;;;7.15;5.90;;;;;;;8.80;100.00;100868.50;1030985;28;20293;-79
2022/10/22 02:11:23;;;;;;;8.00;5.47;;;;;;;8.81;100.00;100872.81;1028051;28;20309;-80
2022/10/22 02:11:56;;;;;;;6.43;5.32;;;;;;;8.79;100.00;100872.19;1030349;28;20795;-80
2022/10/22 02:12:28;;;;;;;5.00;4.50;;;;;;;8.79;100.00;100872.19;1031024;28;20388;-80
2022/10/22 02:13:00;;;;;;;8.40;5.25;;;;;;;8.79;100.00;100874.03;1027856;28;20856;-80
2022/10/22 02:13:53;;;;;;;6.00;4.47;;;;;;;8.77;100.00;100868.91;1030646;28;20313;-80
2022/10/22 02:14:27;;;;;;;6.72;4.55;;;;;;;8.78;100.00;100875.88;1026506;28;20345;-80
2022/10/22 02:14:59;;;;;;;7.35;4.90;;;;;;;8.78;100.00;100875.88;1026536;28;20305;-79
2022/10/22 02:15:32;;;;;;;6.03;5.43;;;;;;;8.77;100.00;100868.91;1023118;28;20302;-80
2022/10/22 02:16:06;;;;;;;6.40;5.55;;;;;;;8.75;100.00;100868.28;1019879;29;20318;-80
2022/10/22 02:16:43;;;;;;;6.13;5.50;;;;;;;8.79;100.00;100872.19;1020163;28;20303;-80
2022/10/22 02:17:19;;;;;;;7.50;5.75;;;;;;;8.81;100.00;100867.50;1024013;28;20832;-79
2022/10/22 02:17:52;;;;;;;12.45;5.55;;;;;;;8.84;100.00;100863.59;1026205;28;20334;-79
2022/10/22 02:18:27;;;;;;;5.72;5.20;;;;;;;8.83;100.00;100868.09;1029542;28;20698;-79
2022/10/22 02:19:02;;;;;;;9.80;5.65;;;;;;;8.84;100.00;100863.59;1025831;28;20311;-80
2022/10/22 02:19:56;;;;;;;7.25;5.63;;;;;;;8.85;100.00;100866.06;1028556;28;20788;-79
2022/10/22 02:20:30;;;;;;;8.18;5.65;;;;;;;8.85;100.00;100866.06;1028737;28;20393;-80
2022/10/22 02:21:02;;;;;;;6.25;5.72;;;;;;;8.86;100.00;100861.56;1030433;28;20332;-79
2022/10/22 02:21:34;;;;;;;6.55;4.65;;;;;;;8.85;100.00;100866.06;1030997;28;20810;-79
2022/10/22 02:22:06;;;;;;;14.27;4.70;;;;;;;8.84;100.00;100860.94;1025753;28;20313;-80
2022/10/22 02:22:38;;;;;;;6.88;5.50;;;;;;;8.82;100.00;100871.78;1027350;28;20302;-80
2022/10/22 02:23:11;;;;;;;5.97;5.00;;;;;;;8.83;100.00;100862.78;1031788;28;20305;-80
2022/10/22 02:23:43;;;;;;;6.10;5.50;;;;;;;8.81;100.00;100874.63;1035016;28;20625;-80
2022/10/22 02:24:15;;;;;;;7.05;5.85;;;;;;;8.79;100.00;100858.91;1034813;28;20304;-80
2022/10/22 02:24:47;;;;;;;12.50;5.75;;;;;;;8.78;100.00;100870.56;1033690;28;20308;-80
2022/10/22 02:25:21;;;;;;;7.10;5.50;;;;;;;8.76;100.00;100856.63;1030813;28;20305;-80
2022/10/22 02:26:01;;;;;;;5.53;5.13;;;;;;;8.78;100.00;100869.75;1031178;28;20298;-80
2022/10/22 02:26:39;;;;;;;7.40;5.88;;;;;;;8.76;100.00;100864.59;1028861;28;20759;-80
2022/10/22 02:27:18;;;;;;;7.10;4.95;;;;;;;8.74;100.00;100864.00;1025403;28;20457;-80
2022/10/22 02:28:12;;;;;;;6.70;5.10;;;;;;;8.74;100.00;100856.03;1026842;28;20789;-80
2022/10/22 02:29:01;;;;;;;12.38;4.60;;;;;;;8.73;100.00;100862.34;1026938;28;20305;-79
2022/10/22 02:29:34;;;;;;;8.40;4.78;;;;;;;8.74;100.00;100864.00;1027193;28;20371;-80
2022/10/22 02:30:12;;;;;;;5.25;4.68;;;;;;;8.75;100.00;100860.31;1026775;28;20309;-80
2022/10/22 02:30:47;;;;;;;6.93;4.75;;;;;;;8.74;100.00;100856.03;1026694;28;20401;-80
2022/10/22 02:31:23;;;;;;;6.88;5.88;;;;;;;8.79;100.00;100856.25;1026181;28;20302;-80
2022/10/22 02:31:57;;;;;;;8.52;5.53;;;;;;;8.84;100.00;100858.28;1025308;28;20725;-80
2022/10/22 02:32:44;;;;;;;5.40;4.90;;;;;;;8.84;100.00;100863.59;1025090;28;21405;-80
2022/10/22 02:33:19;;;;;;;4.97;4.47;;;;;;;8.82;100.00;100855.84;1025369;28;20314;-80
2022/10/22 02:33:54;;;;;;;6.68;5.65;;;;;;;8.81;100.00;100853.38;1027001;28;20376;-80
2022/10/22 02:34:29;;;;;;;5.78;5.20;;;;;;;8.80;100.00;100851.75;1031114;28;20857;-79
2022/10/22 02:35:02;;;;;;;6.82;5.45;;;;;;;8.79;100.00;100855.44;1031560;28;20432;-79
2022/10/22 02:35:34;;;;;;;7.55;5.30;;;;;;;8.80;100.00;100857.06;1031957;28;20387;-80
2022/10/22 02:36:06;;;;;;;9.38;5.13;;;;;;;8.80;100.00;100854.41;1032958;28;20802;-80
2022/10/22 02:36:39;;;;;;;7.97;5.55;;;;;;;8.76;100.00;100856.63;1034741;28;20304;-80
2022/10/22 02:37:11;;;;;;;7.43;4.93;;;;;;;8.76;100.00;100851.31;1028180;28;20316;-80
2022/10/22 02:37:43;;;;;;;6.68;5.38;;;;;;;8.77;100.00;100852.16;1032554;28;20301;-80
2022/10/22 02:38:15;;;;;;;7.25;6.38;;;;;;;8.77;100.00;100858.28;1026564;28;20400;-80
2022/10/22 02:38:48;;;;;;;8.20;5.07;;;;;;;8.74;100.00;100858.69;1020154;28;20310;-80
2022/10/22 02:39:20;;;;;;;9.13;5.50;;;;;;;8.73;100.00;100857.03;1020133;29;20322;-80
2022/10/22 02:39:52;;;;;;;10.48;5.90;;;;;;;8.75;100.00;100860.31;1018505;29;20312;-80
2022/10/22 02:40:24;;;;;;;7.78;4.95;;;;;;;8.74;100.00;100864.00;1027402;28;20302;-80
2022/10/22 02:40:56;;;;;;;5.43;4.55;;;;;;;8.72;100.00;100863.38;1032578;28;20308;-80
2022/10/22 02:41:28;;;;;;;15.90;5.57;;;;;;;8.71;100.00;100856.44;1027212;28;20313;-79
2022/10/22 02:42:01;;;;;;;9.48;5.78;;;;;;;8.71;100.00;100861.75;1027792;28;20309;-80
2022/10/22 02:42:33;;;;;;;6.25;5.60;;;;;;;8.72;100.00;100858.06;1027513;28;20310;-80
2022/10/22 02:43:05;;;;;;;6.85;6.07;;;;;;;8.73;100.00;100862.34;1024633;28;20693;-80
2022/10/22 02:43:49;;;;;;;7.60;4.65;;;;;;;8.71;100.00;100859.09;1030978;28;20676;-80
2022/10/22 02:44:21;;;;;;;63.60;7.75;;;;;;;8.71;100.00;100861.75;1027948;28;20316;-80
2022/10/22 02:44:53;;;;;;;36.00;6.25;;;;;;;8.72;100.00;100863.38;1027905;28;20296;-80
2022/10/22 02:45:24;;;;;;;63.03;5.40;;;;;;;8.72;100.00;100865.22;1027421;28;20354;-80
2022/10/22 02:45:56;;;;;;;34.30;6.53;;;;;;;8.72;100.00;100859.91;1028781;28;20301;-80
2022/10/22 02:46:27;;;;;;;11.63;5.15;;;;;;;8.71;100.00;100864.41;1031853;28;20316;-80
2022/10/22 02:47:01;;;;;;;13.65;4.00;;;;;;;8.70;100.00;100862.75;1031755;28;20301;-80
2022/10/22 02:47:32;;;;;;;11.45;4.97;;;;;;;8.68;100.00;100854.19;1027697;28;20680;-80
2022/10/22 02:48:04;;;;;;;24.45;3.92;;;;;;;8.66;100.00;100872.16;1027966;28;20388;-80
2022/10/22 02:48:36;;;;;;;6.90;4.07;;;;;;;8.63;100.00;100865.41;1027529;28;20302;-80